createdAt,value
2022-09-25T00:00:14.846Z,99949.97
2022-09-25T00:05:17.592Z,99949.34
2022-09-25T00:10:20.366Z,99942.06
2022-09-25T00:15:23.172Z,99945.44
2022-09-25T00:20:26.125Z,99942.97
2022-09-25T00:25:28.785Z,99946.13
2022-09-25T00:30:31.415Z,99927.88
2022-09-25T00:35:34.112Z,99937.03
2022-09-25T00:40:36.814Z,99937.41
2022-09-25T00:45:42.019Z,99923.31
2022-09-25T00:50:56.607Z,99922.38
2022-09-25T00:56:01.554Z,99920.72
2022-09-25T01:01:04.477Z,99929.03
2022-09-25T01:06:07.322Z,99937.34
2022-09-25T01:11:10.477Z,99921.56
2022-09-25T01:16:17.220Z,99916.91
2022-09-25T01:21:31.794Z,99914.91
2022-09-25T01:26:55.767Z,99934.34
2022-09-25T01:32:04.411Z,99939.31
2022-09-25T01:37:14.466Z,99928.50
2022-09-25T01:42:21.570Z,99917.88
2022-09-25T01:47:28.108Z,99920.34
2022-09-25T01:52:35.805Z,99924.50
2022-09-25T01:57:42.518Z,99918.38
2022-09-25T02:02:56.632Z,99916.34
2022-09-25T02:08:03.786Z,99900.41
2022-09-25T02:13:13.317Z,99919.19
2022-09-25T02:18:37.444Z,99918.22
2022-09-25T02:23:52.544Z,99917.25
2022-09-25T02:28:56.175Z,99920.47
2022-09-25T02:33:58.809Z,99931.59
2022-09-25T02:39:03.338Z,99933.13
2022-09-25T02:44:14.334Z,99920.34
2022-09-25T02:49:44.219Z,99918.88
2022-09-25T02:55:02.978Z,99921.22
2022-09-25T03:00:07.733Z,99925.53
2022-09-25T03:05:12.528Z,99907.78
2022-09-25T03:10:16.442Z,99910.97
2022-09-25T03:15:20.074Z,99886.28
2022-09-25T03:20:22.667Z,99898.41
2022-09-25T03:25:25.384Z,99890.81
2022-09-25T03:30:29.423Z,99877.25
2022-09-25T03:35:32.181Z,99884.75
2022-09-25T03:40:36.610Z,99892.69
2022-09-25T03:45:39.328Z,99890.53
2022-09-25T03:50:42.155Z,99899.81
2022-09-25T03:55:48.758Z,99909.94
2022-09-25T04:00:51.455Z,99930.16
2022-09-25T04:05:59.042Z,99920.41
2022-09-25T04:11:02.269Z,99920.56
2022-09-25T04:16:06.905Z,99914.94
2022-09-25T04:21:11.230Z,99909.78
2022-09-25T04:26:13.902Z,99902.66
2022-09-25T04:31:16.532Z,99910.44
2022-09-25T04:36:19.316Z,99914.09
2022-09-25T04:41:22.314Z,99897.53
2022-09-25T04:46:24.928Z,99901.81
2022-09-25T04:51:27.537Z,99915.56
2022-09-25T04:56:30.065Z,99911.75
2022-09-25T05:01:32.896Z,99912.88
2022-09-25T05:06:35.648Z,99911.22
2022-09-25T05:11:38.232Z,99914.19
2022-09-25T05:16:40.993Z,99904.91
2022-09-25T05:21:43.796Z,99909.53
2022-09-25T05:26:48.304Z,99917.63
2022-09-25T05:31:51.019Z,99910.28
2022-09-25T05:36:53.832Z,99908.41
2022-09-25T05:41:57.448Z,99915.69
2022-09-25T05:47:00.098Z,99914.28
2022-09-25T05:52:02.770Z,99913.75
2022-09-25T05:57:05.520Z,99913.31
2022-09-25T06:02:13.338Z,99924.03
2022-09-25T06:07:15.956Z,99926.28
2022-09-25T06:12:18.596Z,99939.53
2022-09-25T06:17:21.319Z,99933.31
2022-09-25T06:22:23.933Z,99934.53
2022-09-25T06:27:27.598Z,99933.78
2022-09-25T06:32:30.283Z,99935.81
2022-09-25T06:37:33.093Z,99941.16
2022-09-25T06:42:35.659Z,99942.03
2022-09-25T06:47:38.410Z,99937.91
2022-09-25T06:52:44.739Z,99936.25
2022-09-25T06:57:47.333Z,99937.91
2022-09-25T07:03:08.734Z,99936.03
2022-09-25T07:08:14.013Z,99937.25
2022-09-25T07:13:18.565Z,99923.81
2022-09-25T07:18:22.407Z,99929.66
2022-09-25T07:23:24.978Z,99930.16
2022-09-25T07:28:27.657Z,99922.69
2022-09-25T07:33:30.290Z,99928.34
2022-09-25T07:38:34.450Z,99920.88
2022-09-25T07:43:40.575Z,99920.56
2022-09-25T07:48:43.144Z,99914.72
2022-09-25T07:53:45.733Z,99909.66
2022-09-25T07:58:48.441Z,99903.59
2022-09-25T08:03:51.239Z,99899.78
2022-09-25T08:08:53.883Z,99892.84
2022-09-25T08:13:56.500Z,99899.88
2022-09-25T08:18:59.122Z,99896.25
2022-09-25T08:24:01.998Z,99909.06
2022-09-25T08:29:05.019Z,99910.31
2022-09-25T08:34:36.264Z,99897.00
2022-09-25T08:39:33.020Z,99900.13
2022-09-25T08:45:09.092Z,99898.56
2022-09-25T08:50:19.678Z,99891.84
2022-09-25T08:55:50.229Z,99890.00
2022-09-25T09:00:54.653Z,99893.75
2022-09-25T09:06:04.780Z,99895.00
2022-09-25T09:11:17.282Z,99906.13
2022-09-25T09:16:23.134Z,99897.88
2022-09-25T09:21:33.682Z,99897.88
2022-09-25T09:26:43.544Z,99897.03
2022-09-25T09:32:01.188Z,99890.47
2022-09-25T09:37:15.993Z,99889.25
2022-09-25T09:42:36.853Z,99890.69
2022-09-25T09:48:11.962Z,99890.25
2022-09-25T09:53:42.412Z,99887.56
2022-09-25T09:59:00.794Z,99880.97
2022-09-25T10:04:22.705Z,99880.59
2022-09-25T10:09:27.268Z,99882.63
2022-09-25T10:14:40.124Z,99880.56
2022-09-25T10:19:49.063Z,99881.00
2022-09-25T10:24:55.441Z,99877.66
2022-09-25T10:30:01.502Z,99874.13
2022-09-25T10:35:06.220Z,99864.28
2022-09-25T10:40:32.139Z,99863.22
2022-09-25T10:45:36.402Z,99857.47
2022-09-25T10:50:39.128Z,99850.88
2022-09-25T10:55:51.183Z,99840.16
2022-09-25T11:00:58.397Z,99845.75
2022-09-25T11:06:20.887Z,99847.81
2022-09-25T11:11:26.962Z,99836.09
2022-09-25T11:16:46.464Z,99841.25
2022-09-25T11:22:11.875Z,99850.47
2022-09-25T11:27:22.611Z,99848.03
2022-09-25T11:32:59.071Z,99841.44
2022-09-25T11:38:40.418Z,99839.00
2022-09-25T11:44:20.123Z,99841.88
2022-09-25T11:49:30.445Z,99838.38
2022-09-25T11:54:39.038Z,99836.50
2022-09-25T11:59:52.263Z,99835.09
2022-09-25T12:05:23.886Z,99835.69
2022-09-25T12:10:36.282Z,99820.00
2022-09-25T12:15:48.124Z,99829.81
2022-09-25T12:20:58.141Z,99831.84
2022-09-25T12:26:00.894Z,99844.56
2022-09-25T12:31:10.790Z,99833.88
2022-09-25T12:36:24.354Z,99850.69
2022-09-25T12:41:46.944Z,99842.66
2022-09-25T12:46:50.941Z,99827.59
2022-09-25T12:51:58.604Z,99832.91
2022-09-25T12:57:39.429Z,99834.13
2022-09-25T13:03:19.434Z,99824.59
2022-09-25T13:09:02.392Z,99824.59
2022-09-25T13:14:11.309Z,99821.31
2022-09-25T13:19:33.149Z,99826.03
2022-09-25T13:24:58.122Z,99820.88
2022-09-25T13:30:01.814Z,99828.25
2022-09-25T13:35:07.191Z,99817.13
2022-09-25T13:40:42.814Z,99814.88
2022-09-25T13:45:45.506Z,99812.41
2022-09-25T13:50:51.516Z,99807.91
2022-09-25T13:55:57.445Z,99813.03
2022-09-25T14:01:01.780Z,99799.88
2022-09-25T14:06:07.646Z,99801.91
2022-09-25T14:11:13.579Z,99808.06
2022-09-25T14:16:40.942Z,99800.72
2022-09-25T14:21:44.465Z,99793.31
2022-09-25T14:26:48.494Z,99792.50
2022-09-25T14:32:09.417Z,99802.56
2022-09-25T14:37:52.881Z,99796.16
2022-09-25T14:43:13.317Z,99795.09
2022-09-25T14:48:25.143Z,99785.81
2022-09-25T14:53:35.662Z,99781.72
2022-09-25T14:58:44.760Z,99787.22
2022-09-25T15:03:48.989Z,99782.91
2022-09-25T15:08:53.027Z,99780.44
2022-09-25T15:14:12.702Z,99777.56
2022-09-25T15:19:37.708Z,99782.91
2022-09-25T15:24:46.266Z,99778.41
2022-09-25T15:29:49.738Z,99779.22
2022-09-25T15:35:15.943Z,99781.28
2022-09-25T15:40:25.816Z,99779.63
2022-09-25T15:45:49.211Z,99772.66
2022-09-25T15:50:53.468Z,99773.06
2022-09-25T15:56:14.064Z,99765.88
2022-09-25T16:01:43.036Z,99763.22
2022-09-25T16:06:46.903Z,99761.56
2022-09-25T16:11:49.777Z,99761.56
2022-09-25T16:16:52.482Z,99759.09
2022-09-25T16:21:55.244Z,99765.47
2022-09-25T16:27:00.784Z,99761.31
2022-09-25T16:32:06.772Z,99759.06
2022-09-25T16:37:20.801Z,99756.97
2022-09-25T16:42:31.428Z,99745.84
2022-09-25T16:47:35.104Z,99742.75
2022-09-25T16:52:43.212Z,99735.97
2022-09-25T16:57:46.406Z,99712.13
2022-09-25T17:02:49.312Z,99715.63
2022-09-25T17:07:57.641Z,99719.31
2022-09-25T17:13:02.167Z,99725.28
2022-09-25T17:18:11.972Z,99736.59
2022-09-25T17:23:15.018Z,99726.94
2022-09-25T17:28:18.292Z,99720.59
2022-09-25T17:33:22.685Z,99719.56
2022-09-25T17:38:27.093Z,99716.28
2022-09-25T17:43:29.781Z,99715.25
2022-09-25T17:48:32.390Z,99704.78
2022-09-25T17:53:35.639Z,99711.97
2022-09-25T17:58:38.766Z,99716.28
2022-09-25T18:03:41.382Z,99706.41
2022-09-25T18:08:44.533Z,99702.94
2022-09-25T18:13:47.720Z,99708.25
2022-09-25T18:19:09.057Z,99705.59
2022-09-25T18:24:11.738Z,99701.09
2022-09-25T18:29:16.935Z,99701.91
2022-09-25T18:34:21.865Z,99702.09
2022-09-25T18:39:24.556Z,99707.44
2022-09-25T18:44:27.625Z,99707.63
2022-09-25T18:49:30.278Z,99711.72
2022-09-25T18:54:32.851Z,99713.34
2022-09-25T18:59:36.373Z,99701.03
2022-09-25T19:04:39.183Z,99704.75
2022-09-25T19:09:41.775Z,99711.72
2022-09-25T19:14:45.236Z,99693.41
2022-09-25T19:19:47.857Z,99681.31
2022-09-25T19:24:52.609Z,99680.88
2022-09-25T19:29:55.319Z,99680.06
2022-09-25T19:34:59.666Z,99673.91
2022-09-25T19:40:21.042Z,99673.28
2022-09-25T19:45:23.661Z,99681.44
2022-09-25T19:50:26.413Z,99677.13
2022-09-25T19:55:29.629Z,99679.59
2022-09-25T20:00:32.248Z,99683.28
2022-09-25T20:05:39.326Z,99686.16
2022-09-25T20:10:42.243Z,99677.53
2022-09-25T20:15:48.115Z,99680.22
2022-09-25T20:20:50.727Z,99672.22
2022-09-25T20:25:53.330Z,99678.56
2022-09-25T20:30:55.935Z,99668.72
2022-09-25T20:36:03.148Z,99669.53
2022-09-25T20:41:08.289Z,99662.56
2022-09-25T20:46:12.979Z,99649.41
2022-09-25T20:51:27.068Z,99654.56
2022-09-25T20:56:31.418Z,99653.72
2022-09-25T21:01:36.720Z,99655.97
2022-09-25T21:06:41.577Z,99655.16
2022-09-25T21:11:45.398Z,99654.50
2022-09-25T21:16:49.014Z,99654.72
2022-09-25T21:21:51.796Z,99662.72
2022-09-25T21:26:54.471Z,99652.88
2022-09-25T21:31:57.284Z,99638.72
2022-09-25T21:37:00.102Z,99636.88
2022-09-25T21:42:04.870Z,99627.03
2022-09-25T21:47:07.473Z,99608.19
2022-09-25T21:52:10.231Z,99602.03
2022-09-25T21:57:13.457Z,99598.50
2022-09-25T22:02:16.515Z,99590.91
2022-09-25T22:07:19.120Z,99595.44
2022-09-25T22:12:21.967Z,99589.28
2022-09-25T22:17:24.611Z,99591.31
2022-09-25T22:22:27.443Z,99576.97
2022-09-25T22:27:30.175Z,99577.34
2022-09-25T22:32:32.758Z,99576.75
2022-09-25T22:37:36.534Z,99573.25
2022-09-25T22:42:39.177Z,99551.94
2022-09-25T22:47:41.799Z,99551.09
2022-09-25T22:52:44.514Z,99561.78
2022-09-25T22:57:47.257Z,99551.28
2022-09-25T23:02:51.002Z,99541.63
2022-09-25T23:07:53.569Z,99530.16
2022-09-25T23:12:57.312Z,99529.72
2022-09-25T23:17:59.920Z,99532.59
2022-09-25T23:23:03.702Z,99516.81
2022-09-25T23:28:06.773Z,99513.69
2022-09-25T23:33:09.418Z,99512.06
2022-09-25T23:38:12.448Z,99513.28
2022-09-25T23:43:17.452Z,99511.66
2022-09-25T23:48:21.020Z,99502.19
2022-09-25T23:53:23.730Z,99490.69
2022-09-25T23:58:28.431Z,99480.03
